Time;durP1;ratioP1;P1;durP2;ratioP2;P2;SDS_P1;SDS_P2;PMS_P1;PMS_P2;Temp;Humidity;BMP_temperature;BMP_pressure;BME280_temperature;BME280_humidity;BME280_pressure;Samples;Min_cycle;Max_cycle;Signal;HPM_P1;HPM_P2
2022/10/15 00:00:32;;;;;;;104.72;57.17;;;12.00;99.90;;;;;;5047812;28;20044;-67
2022/10/15 00:02:58;;;;;;;112.68;59.00;;;11.80;99.90;;;;;;5047772;28;20116;-66
2022/10/15 00:05:23;;;;;;;115.25;60.85;;;11.80;99.90;;;;;;5046329;28;20052;-66
2022/10/15 00:07:50;;;;;;;109.97;58.83;;;11.70;99.90;;;;;;5047397;28;20052;-66
2022/10/15 00:10:16;;;;;;;131.82;65.07;;;11.80;99.90;;;;;;5047301;28;20036;-66
2022/10/15 00:12:42;;;;;;;127.13;64.32;;;11.70;99.90;;;;;;5036845;28;20126;-66
2022/10/15 00:15:09;;;;;;;118.88;62.10;;;11.70;99.90;;;;;;5047732;28;20045;-66
2022/10/15 00:17:35;;;;;;;123.65;62.85;;;11.70;99.90;;;;;;5047408;28;20560;-66
2022/10/15 00:20:03;;;;;;;122.22;65.65;;;11.70;99.90;;;;;;5045698;28;20394;-66
2022/10/15 00:22:28;;;;;;;134.40;68.23;;;11.80;99.90;;;;;;5044436;28;20521;-67
2022/10/15 00:24:54;;;;;;;128.40;66.07;;;11.70;99.90;;;;;;5045398;28;20287;-66
2022/10/15 00:27:20;;;;;;;119.63;64.90;;;11.70;99.90;;;;;;5046653;28;20045;-66
2022/10/15 00:29:46;;;;;;;130.73;65.95;;;11.70;99.90;;;;;;5047851;28;20074;-67
2022/10/15 00:32:11;;;;;;;123.55;66.20;;;11.70;99.90;;;;;;5052962;28;20037;-66
2022/10/15 00:34:37;;;;;;;140.65;69.50;;;11.70;99.90;;;;;;5051752;28;20478;-66
2022/10/15 00:37:03;;;;;;;141.05;71.75;;;11.70;99.90;;;;;;5046671;28;20509;-66
2022/10/15 00:39:29;;;;;;;157.80;74.53;;;11.70;99.90;;;;;;5044645;28;20701;-66
2022/10/15 00:41:54;;;;;;;135.60;70.97;;;11.70;99.90;;;;;;5048409;28;20037;-66
2022/10/15 00:44:20;;;;;;;133.52;71.40;;;11.80;99.90;;;;;;5047501;28;20515;-66
2022/10/15 00:46:52;;;;;;;135.38;71.95;;;11.90;99.90;;;;;;5046892;28;20048;-66
2022/10/15 00:49:23;;;;;;;141.23;72.20;;;11.70;99.90;;;;;;5047078;28;20128;-66
2022/10/15 00:51:56;;;;;;;156.20;76.60;;;11.70;99.90;;;;;;5047046;28;20448;-66
2022/10/15 00:54:24;;;;;;;140.32;77.10;;;11.70;99.90;;;;;;5048675;28;20045;-66
2022/10/15 00:56:51;;;;;;;144.77;76.50;;;11.70;99.90;;;;;;5047983;28;20041;-66
2022/10/15 00:59:21;;;;;;;163.52;77.53;;;11.70;99.90;;;;;;5045276;28;20053;-66
2022/10/15 01:01:47;;;;;;;160.75;83.20;;;11.70;99.90;;;;;;5046768;28;20401;-66
2022/10/15 01:04:13;;;;;;;153.18;74.47;;;11.70;99.90;;;;;;5051892;28;20041;-66
2022/10/15 01:06:39;;;;;;;177.20;87.05;;;11.70;99.90;;;;;;5051705;28;20047;-66
2022/10/15 01:09:05;;;;;;;154.32;80.32;;;11.70;99.90;;;;;;5050364;28;20041;-66
2022/10/15 01:11:42;;;;;;;190.88;88.05;;;11.70;99.90;;;;;;5051513;28;20136;-66
2022/10/15 01:14:31;;;;;;;188.33;85.93;;;11.70;99.90;;;;;;5051474;28;20041;-66
2022/10/15 01:17:15;;;;;;;;;;;11.70;99.90;;;;;;5051003;28;20091;-66
2022/10/15 01:20:13;;;;;;;187.20;83.95;;;11.70;99.90;;;;;;5050537;28;19990;-66
2022/10/15 01:22:43;;;;;;;199.02;87.03;;;11.70;99.90;;;;;;5040409;28;20521;-66
2022/10/15 01:25:26;;;;;;;186.38;88.85;;;11.70;99.90;;;;;;5050764;28;20041;-66
2022/10/15 01:28:11;;;;;;;175.70;82.57;;;11.70;99.90;;;;;;5050264;28;20048;-66
2022/10/15 01:30:40;;;;;;;178.57;84.28;;;11.60;99.90;;;;;;5049721;28;20125;-67
2022/10/15 01:33:30;;;;;;;192.38;90.03;;;11.70;99.90;;;;;;5050933;28;20099;-66
2022/10/15 01:36:01;;;;;;;183.15;87.40;;;11.70;99.90;;;;;;5050903;28;20080;-66
2022/10/15 01:38:55;;;;;;;198.05;91.50;;;11.70;99.90;;;;;;5049832;28;20036;-66
2022/10/15 01:41:42;;;;;;;180.10;87.30;;;11.70;99.90;;;;;;5039700;28;20569;-66
2022/10/15 01:44:17;;;;;;;171.02;87.68;;;11.70;99.90;;;;;;5050870;28;20052;-66
2022/10/15 01:46:51;;;;;;;191.60;88.28;;;11.80;99.90;;;;;;5051392;28;20041;-66
2022/10/15 01:49:23;;;;;;;164.35;84.55;;;11.80;99.90;;;;;;5050626;28;20083;-66
2022/10/15 01:51:50;;;;;;;173.80;82.82;;;11.70;99.90;;;;;;5050734;28;20073;-66
2022/10/15 01:54:18;;;;;;;164.48;83.10;;;12.00;99.90;;;;;;5050720;28;20167;-66
2022/10/15 01:56:48;;;;;;;164.48;83.28;;;11.70;99.90;;;;;;5051278;28;20852;-66
2022/10/15 01:59:17;;;;;;;164.82;82.03;;;11.70;99.90;;;;;;5046936;28;20070;-66
2022/10/15 02:01:43;;;;;;;158.30;77.93;;;11.40;99.90;;;;;;5050897;28;20041;-66
2022/10/15 02:04:26;;;;;;;161.35;79.18;;;11.70;99.90;;;;;;5050651;28;20040;-66
2022/10/15 02:07:14;;;;;;;165.98;82.72;;;11.70;99.90;;;;;;5042813;28;20136;-66
2022/10/15 02:09:57;;;;;;;163.73;80.35;;;11.70;99.90;;;;;;5047027;28;20048;-66
2022/10/15 02:12:22;;;;;;;176.55;85.97;;;11.70;99.90;;;;;;5050142;28;20037;-67
2022/10/15 02:15:16;;;;;;;162.30;79.80;;;11.70;99.90;;;;;;5049719;28;20045;-67
2022/10/15 02:18:01;;;;;;;165.25;84.90;;;11.70;99.90;;;;;;5050204;28;20390;-66
2022/10/15 02:20:43;;;;;;;178.18;82.22;;;11.70;99.90;;;;;;5050024;28;20410;-66
2022/10/15 02:23:25;;;;;;;163.20;82.18;;;11.70;99.90;;;;;;5050359;28;20033;-66
2022/10/15 02:25:53;;;;;;;173.10;83.47;;;11.70;99.90;;;;;;5050637;28;20528;-66
2022/10/15 02:28:22;;;;;;;164.23;78.30;;;11.70;99.90;;;;;;5050449;28;20048;-66
2022/10/15 02:30:49;;;;;;;;;;;11.70;99.90;;;;;;5046854;28;20525;-66
2022/10/15 02:33:17;;;;;;;158.07;78.35;;;11.70;99.90;;;;;;5048716;28;20009;-66
2022/10/15 02:35:43;;;;;;;149.00;76.25;;;11.70;99.90;;;;;;5049942;28;20535;-66
2022/10/15 02:38:12;;;;;;;166.38;80.40;;;11.70;99.90;;;;;;5048920;28;20041;-66
2022/10/15 02:40:41;;;;;;;148.48;78.68;;;11.70;99.90;;;;;;5049815;28;20033;-66
2022/10/15 02:43:09;;;;;;;146.35;73.60;;;11.70;99.90;;;;;;5049769;28;20052;-66
2022/10/15 02:45:36;;;;;;;154.95;77.75;;;11.70;99.90;;;;;;5049677;28;20049;-66
2022/10/15 02:48:02;;;;;;;156.35;80.28;;;11.70;99.90;;;;;;5048468;28;20429;-66
2022/10/15 02:50:28;;;;;;;157.10;78.20;;;11.70;99.90;;;;;;5048306;28;20041;-66
2022/10/15 02:52:53;;;;;;;140.70;72.97;;;11.70;99.90;;;;;;5049283;28;20897;-66
2022/10/15 02:55:19;;;;;;;161.25;76.13;;;11.70;99.90;;;;;;5049427;28;20040;-66
2022/10/15 02:57:44;;;;;;;144.45;72.57;;;11.70;99.90;;;;;;5049605;28;20119;-66
2022/10/15 03:00:10;;;;;;;147.20;74.60;;;11.70;99.90;;;;;;5049348;28;20131;-66
2022/10/15 03:02:37;;;;;;;150.48;74.47;;;11.70;99.90;;;;;;5049538;28;20756;-66
2022/10/15 03:05:03;;;;;;;149.13;71.70;;;11.70;99.90;;;;;;5049367;28;20599;-66
2022/10/15 03:07:28;;;;;;;143.20;69.35;;;11.80;99.90;;;;;;5046665;28;20049;-66
2022/10/15 03:09:54;;;;;;;134.00;67.18;;;11.70;99.90;;;;;;5045208;28;20039;-66
2022/10/15 03:12:22;;;;;;;153.65;76.07;;;11.80;99.90;;;;;;5048636;28;20425;-66
2022/10/15 03:14:48;;;;;;;144.40;69.82;;;11.70;99.90;;;;;;5049728;28;20057;-66
2022/10/15 03:17:14;;;;;;;133.10;68.55;;;11.70;99.90;;;;;;5048721;28;20044;-66
2022/10/15 03:19:40;;;;;;;149.68;71.78;;;11.70;99.90;;;;;;5048223;28;20410;-66
2022/10/15 03:22:05;;;;;;;142.52;68.88;;;11.70;99.90;;;;;;5046706;28;20052;-66
2022/10/15 03:24:31;;;;;;;131.18;69.38;;;11.70;99.90;;;;;;5047407;28;20159;-66
2022/10/15 03:26:57;;;;;;;139.23;69.45;;;11.80;99.90;;;;;;5048691;28;20037;-66
2022/10/15 03:29:22;;;;;;;132.60;68.80;;;11.80;99.90;;;;;;5040266;28;20118;-66
2022/10/15 03:31:48;;;;;;;143.90;69.20;;;11.70;99.90;;;;;;5045005;28;20131;-66
2022/10/15 03:34:14;;;;;;;126.97;67.72;;;11.70;99.90;;;;;;5045681;28;20441;-66
2022/10/15 03:36:40;;;;;;;154.35;73.15;;;11.70;99.90;;;;;;5048301;28;20048;-66
2022/10/15 03:39:07;;;;;;;142.57;68.32;;;11.70;99.90;;;;;;5046853;28;20183;-66
2022/10/15 03:41:33;;;;;;;148.93;68.70;;;11.70;99.90;;;;;;5043615;28;20167;-66
2022/10/15 03:44:06;;;;;;;144.25;69.03;;;11.70;99.90;;;;;;5045836;28;20631;-66
2022/10/15 03:46:32;;;;;;;140.48;69.55;;;11.70;99.90;;;;;;5047847;28;20087;-66
2022/10/15 03:48:58;;;;;;;121.15;65.95;;;11.70;99.90;;;;;;5047442;28;20045;-66
2022/10/15 03:51:24;;;;;;;138.40;69.50;;;11.80;99.90;;;;;;5047391;28;20599;-66
2022/10/15 03:53:49;;;;;;;136.10;65.47;;;11.80;99.90;;;;;;5047996;28;20033;-66
2022/10/15 03:56:15;;;;;;;145.25;66.40;;;11.70;99.90;;;;;;5046005;28;20041;-66
2022/10/15 03:58:41;;;;;;;159.82;73.35;;;11.70;99.90;;;;;;5047413;28;20033;-66
2022/10/15 04:01:12;;;;;;;126.60;63.35;;;11.70;99.90;;;;;;5047123;28;20496;-66
2022/10/15 04:03:38;;;;;;;139.35;63.60;;;11.70;99.90;;;;;;5047673;28;20098;-66
2022/10/15 04:06:04;;;;;;;141.40;65.78;;;11.70;99.90;;;;;;5035059;28;20456;-66
2022/10/15 04:08:30;;;;;;;145.65;68.45;;;11.70;99.90;;;;;;5039052;28;20038;-66
2022/10/15 04:10:55;;;;;;;130.98;64.32;;;11.60;99.90;;;;;;5038740;28;20041;-66
2022/10/15 04:13:21;;;;;;;135.50;69.15;;;11.70;99.90;;;;;;5048422;28;20037;-66
2022/10/15 04:15:47;;;;;;;142.98;66.55;;;11.60;99.90;;;;;;5042683;28;20053;-66
2022/10/15 04:18:12;;;;;;;137.38;64.90;;;11.60;99.90;;;;;;5045144;28;20041;-66
2022/10/15 04:20:39;;;;;;;141.57;68.18;;;11.60;99.90;;;;;;5048450;28;20045;-66
2022/10/15 04:23:05;;;;;;;147.60;69.82;;;11.60;99.90;;;;;;5047480;28;20053;-66
2022/10/15 04:25:30;;;;;;;142.80;67.53;;;11.60;99.90;;;;;;5047439;28;20158;-66
2022/10/15 04:27:56;;;;;;;143.63;69.35;;;11.60;99.90;;;;;;5047698;28;20048;-66
2022/10/15 04:30:22;;;;;;;140.00;67.97;;;11.60;99.90;;;;;;5047368;28;20045;-66
2022/10/15 04:32:51;;;;;;;145.57;70.45;;;11.70;99.90;;;;;;5047352;28;20056;-66
2022/10/15 04:35:16;;;;;;;147.52;73.55;;;11.60;99.90;;;;;;5048310;28;20044;-66
2022/10/15 04:37:42;;;;;;;135.68;69.60;;;11.60;99.90;;;;;;5052104;28;20044;-66
2022/10/15 04:40:08;;;;;;;143.07;68.85;;;11.60;99.90;;;;;;5051135;28;20111;-66
2022/10/15 04:42:34;;;;;;;138.82;70.55;;;11.60;99.90;;;;;;5052185;28;20041;-66
2022/10/15 04:45:00;;;;;;;136.43;70.07;;;11.60;99.90;;;;;;5059074;28;20055;-67
2022/10/15 04:47:25;;;;;;;138.80;71.90;;;11.60;99.90;;;;;;5051397;28;20568;-66
2022/10/15 04:49:51;;;;;;;150.48;74.28;;;11.60;99.90;;;;;;5044539;28;20056;-66
2022/10/15 04:52:17;;;;;;;130.65;69.65;;;11.50;99.90;;;;;;5050750;28;20053;-66
2022/10/15 04:54:42;;;;;;;147.45;72.82;;;11.60;99.90;;;;;;5050866;28;20044;-66
2022/10/15 04:57:08;;;;;;;143.60;71.00;;;11.50;99.90;;;;;;5051171;28;20076;-67
2022/10/15 04:59:34;;;;;;;148.07;70.05;;;11.50;99.90;;;;;;5048690;28;20504;-66
2022/10/15 05:01:59;;;;;;;150.30;69.57;;;11.50;99.90;;;;;;5050638;28;20091;-66
2022/10/15 05:04:25;;;;;;;173.02;83.13;;;11.50;99.90;;;;;;5050300;28;20040;-66
2022/10/15 05:06:50;;;;;;;150.80;73.70;;;11.50;99.90;;;;;;5050372;28;20075;-66
2022/10/15 05:09:16;;;;;;;134.20;70.07;;;11.50;99.90;;;;;;5047042;28;20484;-66
2022/10/15 05:11:42;;;;;;;148.75;72.10;;;11.50;99.90;;;;;;5049267;28;20051;-66
2022/10/15 05:14:07;;;;;;;158.52;71.13;;;11.50;99.90;;;;;;5050323;28;20472;-66
2022/10/15 05:16:33;;;;;;;140.65;73.38;;;11.40;99.90;;;;;;5064775;28;20124;-66
2022/10/15 05:19:01;;;;;;;131.43;71.55;;;11.40;99.90;;;;;;5050487;28;20057;-66
2022/10/15 05:21:27;;;;;;;144.35;70.72;;;11.40;99.90;;;;;;5050974;28;20045;-66
2022/10/15 05:23:53;;;;;;;153.10;76.22;;;11.40;99.90;;;;;;5046450;28;20500;-66
2022/10/15 05:26:23;;;;;;;146.95;75.80;;;11.30;99.90;;;;;;5050380;28;20040;-66
2022/10/15 05:28:50;;;;;;;145.27;71.80;;;11.30;99.90;;;;;;5048781;28;20121;-66
2022/10/15 05:31:21;;;;;;;137.00;68.63;;;11.30;99.90;;;;;;5048702;28;20091;-66
2022/10/15 05:33:48;;;;;;;134.23;72.10;;;11.30;99.90;;;;;;5050082;28;20045;-66
2022/10/15 05:36:23;;;;;;;156.65;77.38;;;11.20;99.90;;;;;;5049385;28;20041;-66
2022/10/15 05:38:54;;;;;;;150.20;76.05;;;11.30;99.90;;;;;;5049395;28;20053;-66
2022/10/15 05:41:20;;;;;;;152.18;75.25;;;11.20;99.90;;;;;;5049241;28;20049;-66
2022/10/15 05:43:47;;;;;;;173.10;84.28;;;11.20;99.90;;;;;;5049694;28;20047;-66
2022/10/15 05:46:13;;;;;;;168.00;79.47;;;11.30;99.90;;;;;;5051304;28;20037;-66
2022/10/15 05:48:40;;;;;;;171.48;78.38;;;11.20;99.90;;;;;;5049206;28;20109;-67
2022/10/15 05:51:10;;;;;;;168.02;81.00;;;11.30;99.90;;;;;;5050544;28;20041;-66
2022/10/15 05:53:36;;;;;;;174.60;80.88;;;11.30;99.90;;;;;;5048546;28;20206;-66
2022/10/15 05:56:03;;;;;;;178.43;86.07;;;11.30;99.90;;;;;;5051202;28;20147;-67
2022/10/15 05:58:28;;;;;;;174.95;83.50;;;11.20;99.90;;;;;;5050406;28;20108;-67
2022/10/15 06:00:59;;;;;;;181.90;85.60;;;11.30;99.90;;;;;;5049379;28;20045;-66
2022/10/15 06:03:25;;;;;;;170.70;82.65;;;11.30;99.90;;;;;;5049942;28;20041;-66
2022/10/15 06:05:51;;;;;;;195.13;88.95;;;11.30;99.90;;;;;;5049560;28;20061;-67
2022/10/15 06:08:18;;;;;;;178.02;83.43;;;11.30;99.90;;;;;;5048048;28;20387;-67
2022/10/15 06:10:43;;;;;;;173.65;81.20;;;11.30;99.90;;;;;;5050120;28;20049;-66
2022/10/15 06:13:10;;;;;;;188.02;85.45;;;11.30;99.90;;;;;;5049309;28;20056;-66
2022/10/15 06:15:39;;;;;;;183.10;86.80;;;11.40;99.90;;;;;;5049562;28;20069;-66
2022/10/15 06:18:05;;;;;;;191.80;85.93;;;11.30;99.90;;;;;;5049734;28;20889;-66
2022/10/15 06:20:31;;;;;;;175.35;86.15;;;11.30;99.90;;;;;;5049303;28;20068;-67
2022/10/15 06:22:58;;;;;;;184.07;84.07;;;11.40;99.90;;;;;;5046620;28;20402;-66
2022/10/15 06:25:24;;;;;;;175.10;88.10;;;11.40;99.90;;;;;;5048317;28;20048;-67
2022/10/15 06:27:50;;;;;;;184.70;81.93;;;11.40;99.90;;;;;;5049126;28;20045;-66
2022/10/15 06:30:16;;;;;;;191.57;86.63;;;11.50;99.90;;;;;;5049054;28;20115;-66
2022/10/15 06:32:52;;;;;;;185.88;87.82;;;11.40;99.90;;;;;;5057086;28;20040;-66
2022/10/15 06:35:20;;;;;;;185.63;86.65;;;11.40;99.90;;;;;;5051049;28;20124;-66
2022/10/15 06:37:46;;;;;;;193.70;82.88;;;11.40;99.90;;;;;;5037416;28;20115;-66
2022/10/15 06:40:13;;;;;;;197.95;88.35;;;11.40;99.90;;;;;;5048158;28;20041;-66
2022/10/15 06:42:39;;;;;;;200.02;90.82;;;11.50;99.90;;;;;;5047122;28;20044;-66
2022/10/15 06:45:06;;;;;;;208.23;91.28;;;11.50;99.90;;;;;;5048976;28;20045;-66
2022/10/15 06:47:32;;;;;;;192.52;87.90;;;11.50;99.90;;;;;;5049170;28;20112;-67
2022/10/15 06:49:58;;;;;;;183.60;87.03;;;11.50;99.90;;;;;;5048806;28;20191;-67
2022/10/15 06:52:24;;;;;;;181.15;87.22;;;11.60;99.90;;;;;;5047596;28;20124;-66
2022/10/15 06:54:50;;;;;;;209.82;89.03;;;11.60;99.90;;;;;;5047601;28;20477;-66
2022/10/15 06:57:15;;;;;;;193.13;86.70;;;11.60;99.90;;;;;;5046762;28;20045;-66
2022/10/15 06:59:41;;;;;;;196.63;86.30;;;11.60;99.90;;;;;;5047687;28;20052;-66
2022/10/15 07:02:09;;;;;;;197.05;85.13;;;11.60;99.90;;;;;;5048367;28;20040;-67
2022/10/15 07:04:34;;;;;;;203.55;91.68;;;11.70;99.90;;;;;;5047605;28;20033;-67
2022/10/15 07:07:00;;;;;;;201.75;86.00;;;11.70;99.90;;;;;;5049171;28;20457;-66
2022/10/15 07:09:26;;;;;;;180.65;81.60;;;11.70;99.90;;;;;;5048651;28;20041;-66
2022/10/15 07:11:52;;;;;;;181.35;85.05;;;11.70;99.90;;;;;;5046106;28;20417;-67
2022/10/15 07:14:17;;;;;;;167.60;81.55;;;11.80;99.90;;;;;;5045329;28;20056;-66
2022/10/15 07:16:43;;;;;;;174.20;83.85;;;11.80;99.90;;;;;;5046178;28;20127;-66
2022/10/15 07:19:09;;;;;;;182.95;84.53;;;11.80;99.90;;;;;;5040089;28;20061;-66
2022/10/15 07:21:35;;;;;;;174.63;83.47;;;11.80;99.90;;;;;;5048061;28;20053;-67
2022/10/15 07:24:00;;;;;;;184.98;85.03;;;11.80;99.90;;;;;;5049946;28;20047;-66
2022/10/15 07:26:29;;;;;;;183.60;84.38;;;11.90;99.90;;;;;;5046178;28;20163;-66
2022/10/15 07:28:56;;;;;;;174.90;81.28;;;11.90;99.90;;;;;;5046995;28;20416;-67
2022/10/15 07:31:22;;;;;;;178.07;80.47;;;11.90;99.90;;;;;;5041005;28;20049;-66
2022/10/15 07:33:47;;;;;;;171.18;82.28;;;12.00;99.90;;;;;;5047649;28;20060;-66
2022/10/15 07:36:13;;;;;;;156.77;80.35;;;12.00;99.90;;;;;;5048791;28;20045;-66
2022/10/15 07:38:41;;;;;;;162.98;82.95;;;12.00;99.90;;;;;;5048178;28;20056;-66
2022/10/15 07:41:09;;;;;;;167.02;79.80;;;12.20;99.90;;;;;;5048983;28;20080;-66
2022/10/15 07:43:35;;;;;;;167.50;84.13;;;12.20;99.90;;;;;;5042360;28;20068;-68
2022/10/15 07:46:02;;;;;;;171.65;82.32;;;12.20;99.90;;;;;;5044848;28;20050;-66
2022/10/15 07:48:28;;;;;;;170.02;80.47;;;12.20;99.90;;;;;;5041569;28;20040;-66
2022/10/15 07:50:58;;;;;;;185.25;85.80;;;12.30;99.90;;;;;;5047972;28;20094;-66
2022/10/15 07:53:24;;;;;;;153.65;77.90;;;12.30;99.90;;;;;;5043675;28;20072;-66
2022/10/15 07:55:50;;;;;;;160.00;77.93;;;12.40;99.90;;;;;;5047479;28;20080;-67
2022/10/15 07:58:16;;;;;;;152.82;76.05;;;12.40;99.90;;;;;;5047663;28;20037;-66
2022/10/15 08:00:42;;;;;;;160.50;78.03;;;12.40;99.90;;;;;;5041553;28;20401;-66
2022/10/15 08:03:08;;;;;;;155.43;80.25;;;12.50;99.90;;;;;;5045993;28;20490;-66
2022/10/15 08:05:35;;;;;;;152.68;79.63;;;12.50;99.90;;;;;;5045315;28;20034;-66
2022/10/15 08:08:01;;;;;;;155.85;78.40;;;12.60;99.90;;;;;;5038731;28;20041;-66
2022/10/15 08:10:27;;;;;;;145.38;77.38;;;12.60;99.90;;;;;;5040077;28;20158;-66
2022/10/15 08:12:53;;;;;;;151.05;76.43;;;12.60;99.90;;;;;;5043609;28;20163;-66
2022/10/15 08:15:18;;;;;;;153.57;78.90;;;12.60;99.90;;;;;;5047330;28;20496;-66
2022/10/15 08:17:44;;;;;;;165.38;79.80;;;12.60;99.90;;;;;;5045819;28;20063;-66
2022/10/15 08:20:10;;;;;;;154.73;79.68;;;12.70;99.90;;;;;;5045838;28;20052;-66
2022/10/15 08:22:36;;;;;;;148.52;78.32;;;12.80;99.90;;;;;;5045600;28;20421;-67
2022/10/15 08:25:02;;;;;;;153.10;80.53;;;12.70;99.90;;;;;;5046621;28;20041;-66
2022/10/15 08:27:28;;;;;;;143.65;79.72;;;12.80;99.90;;;;;;5042187;28;20053;-66
2022/10/15 08:29:53;;;;;;;145.27;77.38;;;12.80;99.90;;;;;;5045521;28;20132;-66
2022/10/15 08:32:19;;;;;;;139.80;77.55;;;12.90;99.90;;;;;;5045630;28;20045;-66
2022/10/15 08:34:45;;;;;;;145.57;77.78;;;12.90;99.90;;;;;;5041973;28;20041;-66
2022/10/15 08:37:10;;;;;;;151.57;81.57;;;13.00;99.90;;;;;;5044438;28;20033;-66
2022/10/15 08:39:36;;;;;;;140.82;76.30;;;12.90;99.90;;;;;;5044346;28;20718;-66
2022/10/15 08:42:05;;;;;;;159.07;81.90;;;13.00;99.90;;;;;;5041498;28;20041;-66
2022/10/15 08:44:43;;;;;;;150.48;84.07;;;13.00;99.90;;;;;;5045830;28;20060;-67
2022/10/15 08:47:17;;;;;;;152.25;81.40;;;13.00;99.90;;;;;;5045697;28;20037;-67
2022/10/15 08:49:51;;;;;;;163.13;80.80;;;13.00;99.90;;;;;;5040398;28;20041;-66
2022/10/15 08:52:28;;;;;;;145.10;78.10;;;13.10;99.90;;;;;;5041296;28;20072;-67
2022/10/15 08:54:55;;;;;;;143.13;77.40;;;13.10;99.90;;;;;;5051141;28;20095;-66
2022/10/15 08:57:38;;;;;;;149.43;78.18;;;13.20;99.90;;;;;;5046293;28;20059;-66
2022/10/15 09:00:45;;;;;;;145.25;81.30;;;13.20;99.90;;;;;;5045925;28;20049;-67
2022/10/15 09:03:30;;;;;;;154.85;82.57;;;13.40;99.90;;;;;;5004250;28;20038;-66
2022/10/15 09:06:24;;;;;;;156.82;83.28;;;13.30;99.90;;;;;;5003240;28;20049;-66
2022/10/15 09:09:11;;;;;;;152.05;81.60;;;13.40;99.90;;;;;;5036043;28;20059;-67
2022/10/15 09:11:49;;;;;;;157.00;82.97;;;13.50;99.90;;;;;;5046549;28;20045;-67
2022/10/15 09:14:20;;;;;;;147.32;83.95;;;13.60;99.90;;;;;;5046963;28;20386;-66
2022/10/15 09:16:49;;;;;;;150.07;81.10;;;13.70;99.90;;;;;;5046744;28;20041;-67
2022/10/15 09:19:20;;;;;;;140.88;78.93;;;13.80;99.90;;;;;;5039444;28;20052;-66
2022/10/15 09:21:48;;;;;;;148.07;79.93;;;13.90;99.90;;;;;;5040905;28;20101;-67
2022/10/15 09:24:22;;;;;;;140.50;75.97;;;13.90;99.90;;;;;;5043064;28;20037;-67
2022/10/15 09:27:00;;;;;;;141.20;79.57;;;14.00;99.90;;;;;;5051783;28;20529;-67
2022/10/15 09:29:37;;;;;;;131.40;73.15;;;14.10;99.90;;;;;;5046827;28;20064;-67
2022/10/15 09:32:38;;;;;;;127.23;67.90;;;14.10;99.90;;;;;;5050273;28;20041;-67
2022/10/15 09:35:19;;;;;;;124.13;65.28;;;14.20;99.90;;;;;;5047414;28;20398;-67
2022/10/15 09:37:51;;;;;;;122.38;65.32;;;14.20;99.90;;;;;;5048504;28;20098;-67
2022/10/15 09:40:40;;;;;;;127.45;69.57;;;14.20;99.90;;;;;;5043966;28;20091;-67
2022/10/15 09:43:09;;;;;;;131.52;68.13;;;14.10;99.90;;;;;;5038957;28;20052;-66
2022/10/15 09:45:34;;;;;;;137.52;69.05;;;14.00;99.90;;;;;;5058394;28;20068;-67
2022/10/15 09:48:01;;;;;;;133.65;67.68;;;13.90;99.90;;;;;;5054080;28;20417;-67
2022/10/15 09:50:38;;;;;;;136.95;67.53;;;13.90;99.90;;;;;;5054228;28;20048;-67
2022/10/15 09:53:06;;;;;;;129.98;63.83;;;13.80;99.90;;;;;;5064808;28;20552;-66
2022/10/15 09:55:32;;;;;;;126.55;63.90;;;13.70;99.90;;;;;;5050142;28;20052;-66
2022/10/15 09:58:02;;;;;;;137.07;65.30;;;13.70;99.90;;;;;;5048835;28;20174;-67
2022/10/15 10:00:50;;;;;;;135.68;63.05;;;13.50;99.90;;;;;;5049984;28;20123;-67
2022/10/15 10:03:16;;;;;;;131.88;65.72;;;13.50;99.90;;;;;;5049937;28;20044;-67
2022/10/15 10:05:42;;;;;;;135.63;67.20;;;13.50;99.90;;;;;;5049848;28;20045;-67
2022/10/15 10:08:20;;;;;;;128.18;59.80;;;13.50;99.90;;;;;;5049330;28;20079;-67
2022/10/15 10:10:57;;;;;;;131.18;59.58;;;13.60;99.90;;;;;;5043393;28;20131;-67
2022/10/15 10:13:34;;;;;;;115.53;56.97;;;13.50;99.90;;;;;;5048311;28;20037;-67
2022/10/15 10:16:04;;;;;;;110.97;54.58;;;13.50;99.90;;;;;;5049240;28;20049;-67
2022/10/15 10:18:31;;;;;;;113.97;55.50;;;13.50;99.90;;;;;;5049828;28;20058;-66
2022/10/15 10:21:02;;;;;;;125.20;56.15;;;13.50;99.90;;;;;;5031209;28;20057;-67
2022/10/15 10:23:34;;;;;;;111.30;56.90;;;13.50;99.90;;;;;;5049915;28;20058;-66
2022/10/15 10:26:03;;;;;;;100.93;53.42;;;13.50;99.90;;;;;;5050019;28;20045;-67
2022/10/15 10:28:33;;;;;;;103.18;53.33;;;13.50;99.90;;;;;;5048202;28;20041;-66
2022/10/15 10:31:03;;;;;;;104.07;52.17;;;13.60;99.90;;;;;;5049532;28;20072;-67
2022/10/15 10:33:40;;;;;;;101.40;49.63;;;13.60;99.90;;;;;;5048923;28;20045;-67
2022/10/15 10:36:17;;;;;;;99.37;51.23;;;13.60;99.90;;;;;;5049157;28;20087;-67
2022/10/15 10:38:59;;;;;;;93.32;47.63;;;13.60;99.90;;;;;;5048966;28;20284;-67
2022/10/15 10:41:58;;;;;;;101.07;50.08;;;13.70;99.90;;;;;;5048902;28;20103;-66
2022/10/15 10:44:35;;;;;;;93.55;49.15;;;13.80;99.90;;;;;;5045383;28;20504;-66
2022/10/15 10:47:07;;;;;;;93.47;49.28;;;13.90;99.90;;;;;;5048855;28;20175;-66
2022/10/15 10:49:38;;;;;;;94.68;44.30;;;14.10;99.90;;;;;;5048696;28;20041;-67
2022/10/15 10:52:05;;;;;;;82.07;43.55;;;14.20;99.90;;;;;;5048699;28;20052;-68
2022/10/15 10:54:32;;;;;;;78.28;39.45;;;14.50;99.90;;;;;;5042262;28;20045;-67
2022/10/15 10:57:00;;;;;;;85.30;41.05;;;14.60;99.90;;;;;;5048896;28;20037;-67
2022/10/15 10:59:37;;;;;;;;;;;15.00;99.90;;;;;;5045936;28;20045;-67
2022/10/15 11:02:08;;;;;;;75.40;41.60;;;15.00;99.90;;;;;;5048181;28;19920;-67
2022/10/15 11:04:35;;;;;;;67.32;36.30;;;15.10;99.90;;;;;;5048929;28;20036;-67
2022/10/15 11:07:05;;;;;;;74.47;42.15;;;15.30;99.90;;;;;;5049167;28;20083;-67
2022/10/15 11:09:50;;;;;;;67.13;38.90;;;15.30;99.90;;;;;;5044501;28;20056;-67
2022/10/15 11:12:38;;;;;;;75.20;38.58;;;15.30;99.90;;;;;;5040980;28;20486;-67
2022/10/15 11:15:24;;;;;;;72.35;38.85;;;15.30;99.90;;;;;;5047143;28;20052;-67
2022/10/15 11:18:13;;;;;;;76.32;39.33;;;15.40;99.90;;;;;;5048298;28;20045;-68
2022/10/15 11:20:47;;;;;;;79.97;39.83;;;15.50;99.90;;;;;;5017897;28;20524;-67
2022/10/15 11:23:38;;;;;;;59.53;37.08;;;15.50;99.90;;;;;;5047213;28;20045;-67
2022/10/15 11:26:19;;;;;;;62.90;36.03;;;15.90;99.90;;;;;;5048957;28;20049;-68
2022/10/15 11:29:18;;;;;;;66.53;37.40;;;15.60;99.90;;;;;;5037826;28;20094;-68
2022/10/15 11:32:03;;;;;;;59.45;36.42;;;15.60;99.90;;;;;;5048553;28;20049;-67
2022/10/15 11:35:04;;;;;;;61.70;37.08;;;15.60;99.90;;;;;;5029296;28;20568;-68
2022/10/15 11:38:01;;;;;;;55.60;32.78;;;15.60;99.90;;;;;;5048698;28;20084;-67
2022/10/15 11:40:49;;;;;;;62.90;35.63;;;15.70;99.90;;;;;;5045120;28;20124;-67
2022/10/15 11:43:56;;;;;;;52.00;30.77;;;15.60;99.90;;;;;;5048490;28;20558;-68
2022/10/15 11:46:25;;;;;;;55.45;32.42;;;15.60;99.90;;;;;;5043626;28;20056;-67
2022/10/15 11:49:15;;;;;;;51.25;29.90;;;15.60;99.90;;;;;;5043702;28;20520;-67
2022/10/15 11:51:55;;;;;;;54.92;29.38;;;15.70;99.90;;;;;;5043145;28;20052;-67
2022/10/15 11:54:27;;;;;;;77.13;31.75;;;15.70;99.90;;;;;;5039126;28;20041;-67
2022/10/15 11:56:56;;;;;;;46.92;31.60;;;15.70;99.90;;;;;;5040048;28;20208;-67
2022/10/15 11:59:39;;;;;;;54.75;31.77;;;15.80;99.90;;;;;;5047381;28;20057;-67
2022/10/15 12:02:19;;;;;;;51.20;30.65;;;15.70;99.90;;;;;;5042717;28;20391;-67
2022/10/15 12:04:52;;;;;;;56.78;33.60;;;15.70;99.90;;;;;;5043048;28;20037;-67
2022/10/15 12:07:40;;;;;;;61.85;30.60;;;15.80;99.90;;;;;;5048063;28;20413;-67
2022/10/15 12:10:11;;;;;;;51.75;31.15;;;15.90;99.90;;;;;;5046104;28;20135;-67
2022/10/15 12:12:56;;;;;;;45.63;29.38;;;15.80;99.90;;;;;;5046197;28;20049;-68
2022/10/15 12:15:55;;;;;;;52.58;29.88;;;15.80;99.90;;;;;;5046106;28;20049;-67
2022/10/15 12:18:42;;;;;;;48.58;29.58;;;15.90;99.90;;;;;;5042141;28;20052;-67
2022/10/15 12:21:32;;;;;;;47.92;27.75;;;15.90;99.90;;;;;;5042610;28;20055;-67
2022/10/15 12:23:58;;;;;;;46.70;25.60;;;15.90;99.90;;;;;;5037761;28;20083;-68
2022/10/15 12:26:28;;;;;;;44.85;26.73;;;16.00;99.90;;;;;;5045427;28;20536;-68
2022/10/15 12:28:56;;;;;;;44.17;26.15;;;16.00;99.90;;;;;;5051413;28;20055;-67
2022/10/15 12:31:23;;;;;;;44.42;26.92;;;15.90;99.90;;;;;;5056626;28;20045;-67
2022/10/15 12:33:56;;;;;;;45.47;27.30;;;16.00;99.90;;;;;;5046240;28;20049;-68
2022/10/15 12:36:29;;;;;;;43.45;24.77;;;16.00;99.90;;;;;;5050529;28;20074;-67
2022/10/15 12:39:00;;;;;;;41.63;26.75;;;15.90;99.90;;;;;;5047287;28;20033;-67